Time;durP1;ratioP1;P1;durP2;ratioP2;P2;SDS_P1;SDS_P2;PMS_P1;PMS_P2;Temp;Humidity;BMP_temperature;BMP_pressure;BME280_temperature;BME280_humidity;BME280_pressure;Samples;Min_cycle;Max_cycle;Signal;HPM_P1;HPM_P2
2022/05/27 00:02:25;;;;;;;7.23;3.73;;;22.60;99.90;;;;;;5050381;28;20453;-68
2022/05/27 00:04:52;;;;;;;7.20;3.83;;;22.70;99.90;;;;;;5050278;28;20864;-70
2022/05/27 00:07:19;;;;;;;5.87;3.50;;;22.90;99.90;;;;;;5050344;28;20861;-67
2022/05/27 00:09:48;;;;;;;10.93;3.50;;;22.90;99.90;;;;;;5050467;28;20811;-66
2022/05/27 00:12:15;;;;;;;6.40;3.27;;;22.90;99.90;;;;;;5050385;28;20454;-70
2022/05/27 00:14:42;;;;;;;5.33;3.13;;;22.90;99.90;;;;;;5050309;28;20478;-69
2022/05/27 00:17:09;;;;;;;8.50;3.77;;;22.80;99.90;;;;;;5049585;28;20450;-71
2022/05/27 00:19:36;;;;;;;5.73;3.70;;;22.80;99.90;;;;;;5050705;28;21261;-68
2022/05/27 00:22:04;;;;;;;6.50;3.03;;;22.80;99.90;;;;;;5050518;28;20880;-67
2022/05/27 00:24:31;;;;;;;5.13;3.07;;;22.80;99.90;;;;;;5050202;28;20493;-67
2022/05/27 00:27:01;;;;;;;4.40;2.70;;;22.80;99.90;;;;;;5050019;28;20995;-71
2022/05/27 00:29:28;;;;;;;7.93;2.93;;;22.80;99.90;;;;;;5050073;28;20457;-66
2022/05/27 00:31:55;;;;;;;4.80;2.90;;;22.60;99.90;;;;;;5049940;28;20823;-67
2022/05/27 00:34:22;;;;;;;6.60;3.33;;;22.70;99.90;;;;;;5049969;28;20478;-68
2022/05/27 00:36:49;;;;;;;5.90;3.23;;;22.80;99.90;;;;;;5050203;28;20839;-68
2022/05/27 00:39:16;;;;;;;6.80;3.23;;;22.70;99.90;;;;;;5049871;28;20453;-68
2022/05/27 00:41:43;;;;;;;6.73;3.70;;;22.70;99.90;;;;;;5049342;28;20481;-68
2022/05/27 00:44:12;;;;;;;6.93;3.20;;;22.70;99.90;;;;;;5049978;28;20519;-69
2022/05/27 00:46:42;;;;;;;5.37;3.40;;;22.80;99.90;;;;;;5049694;28;20458;-68
2022/05/27 00:49:13;;;;;;;5.70;3.30;;;22.60;99.90;;;;;;5049695;28;20450;-71
2022/05/27 00:51:52;;;;;;;6.53;3.53;;;22.40;99.90;;;;;;5049780;28;20481;-69
2022/05/27 00:54:21;;;;;;;5.33;3.53;;;22.40;99.90;;;;;;5049836;28;20488;-67
2022/05/27 00:56:52;;;;;;;6.97;3.60;;;22.50;99.90;;;;;;5050135;28;20458;-68
2022/05/27 00:59:26;;;;;;;6.47;3.43;;;22.60;99.90;;;;;;5049871;28;20454;-69
2022/05/27 01:01:54;;;;;;;4.90;2.80;;;22.70;99.90;;;;;;5049513;28;20453;-68
2022/05/27 01:04:22;;;;;;;9.27;3.40;;;22.70;99.90;;;;;;5049346;28;20474;-70
2022/05/27 01:06:49;;;;;;;7.37;3.43;;;22.60;99.90;;;;;;5049386;28;20450;-66
2022/05/27 01:09:16;;;;;;;8.87;3.47;;;22.50;99.90;;;;;;5049757;28;20557;-68
2022/05/27 01:12:27;;;;;;;6.23;3.87;;;22.50;99.90;;;;;;5049728;28;20998;-67
2022/05/27 01:15:21;;;;;;;4.57;2.63;;;22.40;99.90;;;;;;5012065;28;20474;-68
2022/05/27 01:17:59;;;;;;;9.00;3.40;;;22.40;99.90;;;;;;5045952;28;20469;-69
2022/05/27 01:20:38;;;;;;;5.30;3.47;;;22.50;99.90;;;;;;5049258;28;20454;-68
2022/05/27 01:23:46;;;;;;;5.17;2.90;;;22.50;99.90;;;;;;5048940;28;20452;-69
2022/05/27 01:27:05;;;;;;;5.70;3.70;;;22.60;99.90;;;;;;5048961;28;20469;-67
2022/05/27 01:30:06;;;;;;;5.87;3.90;;;22.50;99.90;;;;;;5048712;28;20446;-68
2022/05/27 01:32:41;;;;;;;9.10;5.50;;;22.50;99.90;;;;;;5036052;28;20458;-68
2022/05/27 01:35:17;;;;;;;13.03;5.83;;;22.50;99.90;;;;;;5049427;28;20945;-70
2022/05/27 01:37:50;;;;;;;7.80;6.77;;;22.40;99.90;;;;;;5049201;28;20446;-65
2022/05/27 01:40:27;;;;;;;8.90;6.50;;;22.30;99.90;;;;;;5048833;28;20461;-68
2022/05/27 01:43:00;;;;;;;8.80;6.93;;;22.30;99.90;;;;;;5049102;28;20907;-66
2022/05/27 01:45:33;;;;;;;8.97;6.93;;;22.20;99.90;;;;;;5049300;28;20489;-68
2022/05/27 01:48:08;;;;;;;12.53;6.50;;;22.20;99.90;;;;;;5048894;28;20497;-65
2022/05/27 01:50:43;;;;;;;14.23;7.50;;;22.10;99.90;;;;;;5048809;28;20468;-69
2022/05/27 01:53:17;;;;;;;10.27;6.87;;;22.00;99.90;;;;;;5049015;28;20565;-67
2022/05/27 01:55:50;;;;;;;7.53;5.90;;;21.80;99.90;;;;;;5049269;28;20475;-68
2022/05/27 01:58:26;;;;;;;11.57;6.87;;;21.70;99.90;;;;;;5048649;28;20465;-67
2022/05/27 02:00:53;;;;;;;8.23;6.90;;;21.70;99.90;;;;;;5049364;28;20579;-68
2022/05/27 02:03:26;;;;;;;10.70;7.87;;;21.80;99.90;;;;;;5052898;28;20461;-70
2022/05/27 02:05:59;;;;;;;10.30;6.97;;;21.70;99.90;;;;;;5052876;28;20473;-67
2022/05/27 02:08:31;;;;;;;8.93;7.07;;;21.70;99.90;;;;;;5052721;28;21001;-65
2022/05/27 02:11:01;;;;;;;11.60;7.30;;;21.70;99.90;;;;;;5053284;28;20507;-69
2022/05/27 02:13:34;;;;;;;8.03;6.23;;;21.60;99.90;;;;;;5052921;28;20454;-67
2022/05/27 02:16:04;;;;;;;8.57;7.07;;;21.50;99.90;;;;;;5052905;28;20484;-66
2022/05/27 02:18:37;;;;;;;10.03;6.10;;;21.50;99.90;;;;;;5034900;28;20503;-67
2022/05/27 02:21:17;;;;;;;12.30;8.07;;;21.50;99.90;;;;;;5052626;28;20450;-67
2022/05/27 02:23:58;;;;;;;9.77;7.40;;;21.40;99.90;;;;;;5052445;28;20460;-66
2022/05/27 02:26:29;;;;;;;10.40;7.47;;;21.50;99.90;;;;;;5052716;28;20462;-67
2022/05/27 02:29:01;;;;;;;10.00;8.37;;;21.50;99.90;;;;;;5052454;28;20500;-67
2022/05/27 02:31:34;;;;;;;11.83;8.50;;;21.60;99.90;;;;;;5052359;28;20813;-65
2022/05/27 02:36:57;;;;;;;10.17;8.10;;;21.50;99.90;;;;;;5052444;28;20656;-67
2022/05/27 02:39:24;;;;;;;8.20;7.30;;;21.40;99.90;;;;;;5052399;28;20955;-68
2022/05/27 02:42:00;;;;;;;8.97;7.97;;;21.40;99.90;;;;;;5051923;28;20485;-70
2022/05/27 02:44:36;;;;;;;9.40;8.40;;;21.30;99.90;;;;;;5052588;28;20877;-68
2022/05/27 02:47:09;;;;;;;10.27;7.30;;;21.30;99.90;;;;;;5052306;28;20458;-69
2022/05/27 02:49:44;;;;;;;9.53;7.70;;;21.40;99.90;;;;;;5051923;28;20446;-68
2022/05/27 02:52:23;;;;;;;11.83;7.87;;;21.40;99.90;;;;;;5051882;28;20476;-68
2022/05/27 02:54:58;;;;;;;12.50;7.37;;;21.40;99.90;;;;;;5051562;28;20473;-67
2022/05/27 02:57:29;;;;;;;7.73;5.70;;;21.30;99.90;;;;;;5051850;28;20449;-68
2022/05/27 02:59:57;;;;;;;14.40;6.47;;;21.30;99.90;;;;;;5051978;28;20481;-67
2022/05/27 03:02:24;;;;;;;9.40;5.30;;;21.10;99.90;;;;;;5051756;28;20445;-68
2022/05/27 03:04:58;;;;;;;10.93;7.10;;;21.00;99.90;;;;;;5051854;28;20545;-69
2022/05/27 03:07:45;;;;;;;9.23;7.17;;;20.80;99.90;;;;;;5051525;28;21105;-70
2022/05/27 03:10:27;;;;;;;7.67;5.23;;;20.90;99.90;;;;;;5051785;28;20514;-70
2022/05/27 03:13:05;;;;;;;8.60;5.47;;;21.10;99.90;;;;;;5050295;28;20481;-66
2022/05/27 03:15:41;;;;;;;7.83;5.03;;;21.20;99.90;;;;;;5051422;28;20482;-66
2022/05/27 03:18:22;;;;;;;10.10;5.27;;;21.20;99.90;;;;;;5051430;28;20446;-68
2022/05/27 03:20:53;;;;;;;9.20;5.03;;;21.30;99.90;;;;;;5051837;28;20957;-69
2022/05/27 03:23:40;;;;;;;7.73;5.40;;;21.30;99.90;;;;;;5051931;28;20492;-69
2022/05/27 03:26:20;;;;;;;15.53;5.87;;;21.30;99.90;;;;;;5051431;28;20473;-66
2022/05/27 03:28:54;;;;;;;8.93;5.00;;;21.30;99.90;;;;;;5051440;28;20485;-66
2022/05/27 03:31:29;;;;;;;7.33;4.83;;;21.30;99.90;;;;;;5051499;28;20461;-70
2022/05/27 03:34:04;;;;;;;8.87;5.63;;;21.40;99.90;;;;;;5051403;28;20508;-68
2022/05/27 03:36:40;;;;;;;7.30;4.50;;;21.40;99.90;;;;;;5050967;28;20453;-67
2022/05/27 03:39:13;;;;;;;6.27;4.70;;;21.50;99.90;;;;;;5051044;28;20456;-69
2022/05/27 03:41:46;;;;;;;6.83;4.80;;;21.60;99.90;;;;;;5050774;28;21300;-70
2022/05/27 03:44:16;;;;;;;6.33;5.00;;;21.70;99.90;;;;;;5051025;28;20510;-68
2022/05/27 03:46:44;;;;;;;6.77;5.30;;;21.70;99.90;;;;;;5051116;28;20520;-66
2022/05/27 03:49:11;;;;;;;6.73;5.00;;;21.70;99.90;;;;;;5050969;28;20602;-67
2022/05/27 03:51:47;;;;;;;7.60;5.37;;;21.70;99.90;;;;;;5051155;28;20450;-68
2022/05/27 03:54:14;;;;;;;6.70;4.37;;;21.60;99.90;;;;;;5050555;28;20465;-70
2022/05/27 03:56:43;;;;;;;7.37;4.90;;;21.70;99.90;;;;;;5050771;28;20474;-69
2022/05/27 03:59:12;;;;;;;9.00;4.73;;;21.80;99.90;;;;;;5050619;28;20939;-71
2022/05/27 04:01:42;;;;;;;7.17;4.90;;;21.90;99.90;;;;;;5051038;28;20925;-67
2022/05/27 04:04:11;;;;;;;8.10;4.77;;;22.00;99.90;;;;;;5050398;28;20532;-65
2022/05/27 04:06:40;;;;;;;7.83;5.20;;;22.00;99.90;;;;;;5050408;28;20532;-68
2022/05/27 04:09:07;;;;;;;6.97;4.87;;;22.00;99.90;;;;;;5049965;28;20489;-67
2022/05/27 04:11:35;;;;;;;9.40;5.10;;;22.10;99.90;;;;;;5050178;28;20800;-67
2022/05/27 04:14:03;;;;;;;7.17;5.73;;;22.10;99.90;;;;;;5050318;28;20461;-68
2022/05/27 04:16:30;;;;;;;9.17;5.60;;;22.10;99.90;;;;;;5050322;28;21073;-71
2022/05/27 04:18:57;;;;;;;9.90;6.10;;;22.20;99.90;;;;;;5050827;28;20450;-67
2022/05/27 04:21:24;;;;;;;7.20;5.83;;;22.20;99.90;;;;;;5050780;28;20515;-68
2022/05/27 04:23:54;;;;;;;8.93;6.10;;;22.20;99.90;;;;;;5050350;28;20465;-69
2022/05/27 04:26:21;;;;;;;8.20;5.10;;;22.10;99.90;;;;;;5050673;28;20488;-70
2022/05/27 04:28:48;;;;;;;14.80;6.40;;;22.00;99.90;;;;;;5050041;28;20502;-65
2022/05/27 04:31:15;;;;;;;13.80;6.40;;;22.10;99.90;;;;;;5050046;28;20866;-68
2022/05/27 04:33:42;;;;;;;8.70;7.13;;;22.10;99.90;;;;;;5050326;28;20484;-69
2022/05/27 04:36:11;;;;;;;12.80;7.40;;;22.30;99.90;;;;;;5050049;28;20932;-70
2022/05/27 04:38:38;;;;;;;11.03;7.57;;;22.40;99.90;;;;;;5050013;28;20457;-69
2022/05/27 04:41:07;;;;;;;13.27;7.37;;;22.50;99.90;;;;;;5049586;28;20469;-69
2022/05/27 04:43:35;;;;;;;12.60;7.87;;;22.40;99.90;;;;;;5049977;28;20458;-70
2022/05/27 04:46:02;;;;;;;8.10;6.40;;;22.50;99.90;;;;;;5049843;28;20466;-70
2022/05/27 04:48:29;;;;;;;9.27;7.20;;;22.50;99.90;;;;;;5050092;28;20486;-67
2022/05/27 04:50:56;;;;;;;10.80;7.53;;;22.70;99.90;;;;;;5050020;28;20453;-67
2022/05/27 04:53:23;;;;;;;11.50;7.87;;;22.70;99.90;;;;;;5050105;28;20468;-70
2022/05/27 04:55:50;;;;;;;10.60;7.07;;;22.80;99.90;;;;;;5049286;28;20482;-69
2022/05/27 04:58:19;;;;;;;11.00;6.70;;;22.60;99.90;;;;;;5049364;28;20466;-70
2022/05/27 05:00:48;;;;;;;16.10;7.50;;;22.60;99.90;;;;;;5049535;28;20458;-69
2022/05/27 05:03:15;;;;;;;9.80;7.07;;;22.80;99.90;;;;;;5049534;28;20458;-65
2022/05/27 05:05:43;;;;;;;9.13;6.70;;;23.00;99.90;;;;;;5049782;28;20477;-65
2022/05/27 05:08:19;;;;;;;9.83;5.93;;;23.10;99.90;;;;;;5049523;28;20454;-66
2022/05/27 05:10:46;;;;;;;9.50;7.13;;;23.10;99.90;;;;;;5049067;28;20512;-66
2022/05/27 05:13:13;;;;;;;11.07;7.20;;;23.30;99.90;;;;;;5049300;28;20449;-66
2022/05/27 05:15:42;;;;;;;9.30;6.50;;;23.40;99.90;;;;;;5049550;28;20477;-65
2022/05/27 05:18:09;;;;;;;10.20;6.83;;;23.40;99.90;;;;;;5049785;28;20454;-65
2022/05/27 05:20:36;;;;;;;9.50;7.50;;;23.50;99.90;;;;;;5049481;28;20453;-65
2022/05/27 05:23:03;;;;;;;9.97;6.40;;;23.40;99.90;;;;;;5049175;28;20453;-64
2022/05/27 05:25:32;;;;;;;10.43;7.50;;;23.50;99.90;;;;;;5048981;28;20477;-65
2022/05/27 05:27:59;;;;;;;9.67;7.00;;;23.70;99.90;;;;;;5049039;28;20935;-63
2022/05/27 05:30:27;;;;;;;9.83;6.80;;;23.70;99.90;;;;;;5049348;28;20457;-65
2022/05/27 05:32:56;;;;;;;13.00;7.30;;;23.60;99.90;;;;;;5049348;28;20454;-63
2022/05/27 05:35:25;;;;;;;11.63;7.40;;;23.60;99.90;;;;;;5049665;28;20885;-66
2022/05/27 05:37:52;;;;;;;9.87;7.63;;;23.80;99.90;;;;;;5055145;28;20464;-66
2022/05/27 05:40:20;;;;;;;8.00;7.10;;;23.80;99.90;;;;;;5055865;28;20545;-66
2022/05/27 05:42:47;;;;;;;12.47;7.30;;;23.90;99.90;;;;;;5055877;28;20489;-65
2022/05/27 05:45:16;;;;;;;11.37;6.30;;;24.10;99.90;;;;;;5056014;28;20474;-65
2022/05/27 05:47:43;;;;;;;10.20;6.23;;;24.20;99.90;;;;;;5055486;28;20503;-66
2022/05/27 05:50:14;;;;;;;10.00;5.50;;;24.20;99.90;;;;;;5055850;28;20481;-69
2022/05/27 05:52:41;;;;;;;9.97;5.40;;;24.10;99.90;;;;;;5054083;28;20441;-64
2022/05/27 05:55:12;;;;;;;10.67;5.00;;;24.20;99.90;;;;;;5055743;28;20482;-67
2022/05/27 05:57:41;;;;;;;7.40;4.60;;;24.30;99.90;;;;;;5055903;28;20813;-68
2022/05/27 06:00:10;;;;;;;7.03;4.03;;;24.10;99.90;;;;;;5055828;28;20460;-67
2022/05/27 06:02:37;;;;;;;7.33;4.40;;;24.00;99.90;;;;;;5055706;28;20496;-69
2022/05/27 06:05:05;;;;;;;8.63;5.17;;;24.00;99.90;;;;;;5055539;28;20476;-69
2022/05/27 06:07:34;;;;;;;7.47;4.13;;;24.00;99.90;;;;;;5055736;28;20452;-67
2022/05/27 06:10:02;;;;;;;8.20;4.80;;;24.20;99.90;;;;;;5055499;28;20497;-68
2022/05/27 06:12:33;;;;;;;9.80;4.93;;;24.30;99.90;;;;;;5054812;28;20512;-69
2022/05/27 06:15:01;;;;;;;7.23;4.60;;;24.30;99.90;;;;;;5054301;28;20478;-67
2022/05/27 06:17:29;;;;;;;9.30;4.40;;;24.20;99.90;;;;;;5055117;28;20456;-69
2022/05/27 06:19:56;;;;;;;7.07;4.23;;;24.30;99.90;;;;;;5052425;28;20438;-69
2022/05/27 06:22:23;;;;;;;9.63;4.77;;;24.50;99.90;;;;;;5055053;28;21085;-67
2022/05/27 06:24:51;;;;;;;9.00;4.30;;;24.50;99.90;;;;;;5052903;28;20477;-68
2022/05/27 06:27:19;;;;;;;7.70;4.50;;;24.80;99.90;;;;;;5055618;28;20449;-70
2022/05/27 06:35:15;;;;;;;6.70;4.50;;;25.50;99.90;;;;;;5055599;28;20538;-68
2022/05/27 06:37:42;;;;;;;10.23;5.70;;;25.60;99.90;;;;;;5055461;28;20449;-69
2022/05/27 06:40:12;;;;;;;10.40;4.30;;;25.50;99.90;;;;;;5054979;28;20472;-68
2022/05/27 06:42:39;;;;;;;8.23;4.00;;;25.60;99.90;;;;;;5054759;28;20489;-67
2022/05/27 06:45:09;;;;;;;6.63;3.97;;;25.70;99.90;;;;;;5055214;28;20485;-67
2022/05/27 06:47:36;;;;;;;6.40;4.70;;;25.70;99.90;;;;;;5054531;28;20489;-68
2022/05/27 06:50:04;;;;;;;8.87;4.83;;;25.80;99.90;;;;;;5051932;28;20490;-67
2022/05/27 06:52:31;;;;;;;11.47;5.40;;;26.10;99.90;;;;;;5051471;28;20542;-68
2022/05/27 06:54:58;;;;;;;7.37;4.17;;;26.10;99.90;;;;;;5051658;28;20572;-67
2022/05/27 06:57:27;;;;;;;7.60;4.57;;;26.20;99.90;;;;;;5051853;28;20477;-68
2022/05/27 06:59:54;;;;;;;7.37;4.27;;;26.40;99.90;;;;;;5051696;28;20488;-68
2022/05/27 07:02:22;;;;;;;8.00;4.73;;;26.50;99.90;;;;;;5051584;28;20880;-68
2022/05/27 07:04:49;;;;;;;12.57;5.33;;;26.70;99.60;;;;;;5049066;28;20462;-68
2022/05/27 07:07:16;;;;;;;8.70;5.20;;;26.70;99.70;;;;;;5048219;28;20457;-67
2022/05/27 07:09:44;;;;;;;9.70;5.57;;;26.90;99.80;;;;;;5048092;28;20488;-68
2022/05/27 07:12:12;;;;;;;8.87;4.50;;;27.10;99.10;;;;;;5048575;28;20482;-67
2022/05/27 07:14:41;;;;;;;6.73;4.27;;;27.40;98.30;;;;;;5048405;28;20485;-68
2022/05/27 07:17:08;;;;;;;11.13;4.20;;;27.40;96.90;;;;;;5048737;28;20458;-68
2022/05/27 07:19:35;;;;;;;8.90;4.00;;;27.30;95.40;;;;;;5049215;28;20508;-68
2022/05/27 07:22:03;;;;;;;9.63;4.03;;;27.40;95.70;;;;;;5051258;28;20978;-68
2022/05/27 07:24:30;;;;;;;7.83;4.80;;;27.50;95.60;;;;;;5051512;28;20446;-68
2022/05/27 07:26:57;;;;;;;7.70;5.10;;;27.70;94.80;;;;;;5051363;28;20454;-67
2022/05/27 07:29:24;;;;;;;9.77;4.00;;;27.80;94.60;;;;;;5051114;28;20553;-68
2022/05/27 07:31:53;;;;;;;7.83;4.57;;;27.70;93.00;;;;;;5051145;28;20458;-67
2022/05/27 07:34:20;;;;;;;8.07;5.30;;;27.80;93.00;;;;;;5051131;28;20986;-68
2022/05/27 07:36:47;;;;;;;8.57;4.70;;;28.10;92.50;;;;;;5051243;28;20454;-69
2022/05/27 07:39:15;;;;;;;10.93;5.00;;;28.30;92.20;;;;;;5051222;28;20979;-67
2022/05/27 07:41:42;;;;;;;8.90;5.20;;;28.40;92.40;;;;;;5050857;28;20498;-66
2022/05/27 07:44:09;;;;;;;7.23;4.47;;;28.40;90.90;;;;;;5051144;28;20465;-68
2022/05/27 07:46:37;;;;;;;10.23;4.97;;;28.10;91.40;;;;;;5050870;28;20453;-67
2022/05/27 07:49:07;;;;;;;7.10;5.97;;;28.10;91.40;;;;;;5050869;28;20538;-68
2022/05/27 07:51:34;;;;;;;7.83;6.03;;;28.10;91.70;;;;;;5051267;28;20450;-68
2022/05/27 07:54:01;;;;;;;8.13;4.57;;;28.10;91.80;;;;;;5050819;28;20837;-68
2022/05/27 07:56:28;;;;;;;8.30;4.00;;;28.10;90.10;;;;;;5050929;28;20548;-68
2022/05/27 07:58:55;;;;;;;10.27;7.90;;;28.30;89.60;;;;;;5050468;28;20450;-68
2022/05/27 08:01:22;;;;;;;8.77;4.03;;;28.50;90.60;;;;;;5050706;28;20466;-68
2022/05/27 08:03:49;;;;;;;8.53;4.03;;;28.50;87.00;;;;;;5050530;28;20989;-67
2022/05/27 08:06:18;;;;;;;6.40;3.93;;;28.10;85.80;;;;;;5050615;28;20465;-68
2022/05/27 08:08:46;;;;;;;9.80;4.67;;;28.30;86.50;;;;;;5050783;28;20473;-69
2022/05/27 08:11:13;;;;;;;8.70;4.60;;;28.50;87.30;;;;;;5050856;28;20895;-69
2022/05/27 08:13:42;;;;;;;12.23;4.93;;;28.50;86.00;;;;;;5050666;28;20462;-70
2022/05/27 08:16:10;;;;;;;7.00;3.87;;;28.50;86.70;;;;;;5050615;28;20461;-68
2022/05/27 08:18:38;;;;;;;8.40;5.10;;;28.50;86.70;;;;;;5050601;28;20473;-68
2022/05/27 08:21:05;;;;;;;6.57;4.20;;;28.70;85.40;;;;;;5050507;28;20499;-69
2022/05/27 08:23:34;;;;;;;7.50;4.43;;;28.90;85.00;;;;;;5050373;28;20524;-66
2022/05/27 08:26:01;;;;;;;6.87;4.30;;;29.10;83.20;;;;;;5050466;28;20446;-70
2022/05/27 08:28:28;;;;;;;7.07;4.40;;;28.90;83.60;;;;;;5050326;28;20461;-69
2022/05/27 08:30:58;;;;;;;7.60;4.80;;;29.10;82.90;;;;;;5050032;28;20493;-67
2022/05/27 08:38:00;;;;;;;7.40;5.07;;;29.20;82.10;;;;;;5050171;28;20512;-70
2022/05/27 08:39:00;;;;;;;6.27;4.57;;;29.30;80.20;;;;;;5050071;28;20434;-68
2022/05/27 08:41:45;;;;;;;7.83;4.30;;;29.40;81.50;;;;;;5049476;28;20557;-70
2022/05/27 08:44:24;;;;;;;9.40;7.50;;;29.40;81.90;;;;;;5050202;28;20454;-70
2022/05/27 08:46:59;;;;;;;7.90;5.10;;;29.40;80.90;;;;;;5050100;28;20464;-68
2022/05/27 08:49:31;;;;;;;8.60;5.30;;;29.30;81.30;;;;;;5049661;28;20485;-69
2022/05/27 08:52:04;;;;;;;7.47;4.43;;;29.50;81.80;;;;;;5049717;28;20457;-68
2022/05/27 08:54:39;;;;;;;9.87;5.70;;;29.60;81.20;;;;;;5049456;28;20462;-69
2022/05/27 08:59:59;;;;;;;9.90;5.63;;;29.90;78.70;;;;;;5049579;28;20603;-68
2022/05/27 09:02:32;;;;;;;8.27;4.80;;;30.10;78.60;;;;;;5049636;28;20576;-66
2022/05/27 09:05:14;;;;;;;12.03;5.03;;;30.30;77.50;;;;;;5049603;28;20961;-67
2022/05/27 09:07:47;;;;;;;7.37;4.40;;;30.50;76.80;;;;;;5049841;28;20484;-72
2022/05/27 09:10:20;;;;;;;9.10;4.43;;;30.60;76.10;;;;;;5049223;28;20494;-73
2022/05/27 09:13:04;;;;;;;9.63;4.80;;;30.70;77.20;;;;;;5049252;28;20481;-68
2022/05/27 09:15:44;;;;;;;6.50;3.93;;;30.80;77.20;;;;;;5049158;28;20450;-69
2022/05/27 09:18:25;;;;;;;9.27;4.73;;;30.90;76.60;;;;;;5049559;28;20457;-70
2022/05/27 09:21:03;;;;;;;7.67;4.67;;;31.00;75.60;;;;;;5049321;28;20516;-70
2022/05/27 09:23:49;;;;;;;9.47;5.70;;;31.10;73.20;;;;;;5049391;28;20473;-69
2022/05/27 09:26:24;;;;;;;9.60;4.87;;;31.30;74.40;;;;;;5049336;28;20489;-70
2022/05/27 09:29:00;;;;;;;9.90;5.07;;;31.40;72.70;;;;;;5049230;28;20595;-67
2022/05/27 09:31:33;;;;;;;11.97;4.70;;;31.40;72.50;;;;;;5049246;28;20930;-68
2022/05/27 09:34:01;;;;;;;12.50;5.67;;;31.50;72.40;;;;;;5049216;28;20478;-67
2022/05/27 09:36:36;;;;;;;7.90;5.27;;;31.50;73.00;;;;;;5049183;28;20458;-69
2022/05/27 09:39:07;;;;;;;7.47;4.97;;;31.70;71.70;;;;;;5049286;28;20445;-67
2022/05/27 09:41:43;;;;;;;9.77;4.90;;;31.40;70.40;;;;;;5048681;28;20478;-68
2022/05/27 09:44:20;;;;;;;8.27;5.53;;;31.40;70.20;;;;;;5048956;28;20461;-68
2022/05/27 09:46:47;;;;;;;8.07;4.20;;;31.30;69.00;;;;;;5049264;28;20449;-67
2022/05/27 09:49:14;;;;;;;10.00;5.63;;;31.30;69.90;;;;;;5049302;28;20442;-68
2022/05/27 09:51:41;;;;;;;7.60;4.70;;;31.30;70.40;;;;;;5049199;28;20852;-67
2022/05/27 09:54:29;;;;;;;7.80;4.80;;;31.50;69.90;;;;;;5049108;28;20801;-67
2022/05/27 09:57:01;;;;;;;10.63;4.80;;;31.80;69.70;;;;;;5049081;28;20473;-66
2022/05/27 09:59:36;;;;;;;9.17;4.63;;;32.00;68.90;;;;;;5049217;28;20475;-67
2022/05/27 10:02:27;;;;;;;10.13;5.53;;;32.10;68.50;;;;;;5049309;28;20492;-68
2022/05/27 10:05:00;;;;;;;10.43;5.30;;;32.30;68.60;;;;;;5044947;28;20498;-66
2022/05/27 10:07:37;;;;;;;7.30;4.70;;;32.30;67.00;;;;;;5049468;28;20446;-68
2022/05/27 10:10:24;;;;;;;11.00;4.87;;;32.30;67.30;;;;;;5049187;28;20492;-69
2022/05/27 10:12:53;;;;;;;8.47;4.33;;;32.50;66.70;;;;;;5032317;28;20905;-68
2022/05/27 10:15:30;;;;;;;8.93;4.70;;;32.60;66.20;;;;;;5049065;28;20855;-73
2022/05/27 10:18:14;;;;;;;9.00;4.87;;;32.60;65.30;;;;;;5049179;28;20461;-70
2022/05/27 10:20:43;;;;;;;7.03;3.90;;;32.60;62.90;;;;;;5048936;28;20457;-69
2022/05/27 10:23:12;;;;;;;8.30;5.13;;;32.70;62.20;;;;;;5051260;28;20482;-70
2022/05/27 10:25:41;;;;;;;10.33;4.90;;;32.80;64.10;;;;;;5052529;28;20454;-65
2022/05/27 10:28:22;;;;;;;8.63;4.43;;;32.90;63.00;;;;;;5052702;28;20461;-65
2022/05/27 10:30:54;;;;;;;9.60;4.63;;;33.00;62.60;;;;;;5052539;28;20513;-68
2022/05/27 10:33:24;;;;;;;9.20;4.17;;;33.20;62.90;;;;;;5052354;28;20470;-64
2022/05/27 10:35:53;;;;;;;10.23;3.90;;;33.40;62.70;;;;;;5052394;28;20508;-67
2022/05/27 10:38:40;;;;;;;8.17;4.67;;;33.50;61.80;;;;;;5052427;28;20819;-64
2022/05/27 10:41:15;;;;;;;8.83;4.10;;;33.50;61.30;;;;;;5051682;28;20457;-65
2022/05/27 10:44:11;;;;;;;9.03;4.10;;;33.40;58.10;;;;;;5052010;28;20554;-65
2022/05/27 10:46:44;;;;;;;6.80;3.43;;;33.40;56.80;;;;;;5052500;28;20476;-66
2022/05/27 10:49:39;;;;;;;7.80;4.00;;;33.50;56.90;;;;;;5052176;28;20480;-68
2022/05/27 10:52:24;;;;;;;6.20;3.60;;;33.20;57.50;;;;;;5052162;28;20493;-70
2022/05/27 10:55:10;;;;;;;11.60;4.00;;;33.20;58.30;;;;;;5051730;28;20491;-66
2022/05/27 11:03:51;;;;;;;10.53;3.77;;;33.60;55.70;;;;;;5004042;28;20511;-66
2022/05/27 11:06:28;;;;;;;8.30;3.27;;;33.70;54.70;;;;;;5052058;28;20450;-69
2022/05/27 11:09:20;;;;;;;13.97;4.97;;;33.80;54.90;;;;;;5051813;28;20457;-69
2022/05/27 11:11:55;;;;;;;10.93;4.50;;;34.00;56.10;;;;;;5051590;28;20837;-70
2022/05/27 11:17:35;;;;;;;15.40;4.40;;;34.30;53.80;;;;;;5017253;28;20519;-69
2022/05/27 11:20:41;;;;;;;9.70;4.10;;;34.40;53.30;;;;;;5059945;28;20445;-70
2022/05/27 11:23:28;;;;;;;10.20;4.63;;;34.40;53.10;;;;;;5069082;28;20484;-70
2022/05/27 11:26:09;;;;;;;9.73;3.30;;;34.30;52.80;;;;;;5069621;28;20452;-69
2022/05/27 11:29:03;;;;;;;9.63;3.93;;;34.40;52.90;;;;;;5069721;28;20493;-68
2022/05/27 11:31:39;;;;;;;8.50;3.43;;;34.50;53.30;;;;;;5069825;28;20495;-69
2022/05/27 11:34:22;;;;;;;7.60;3.90;;;34.70;53.80;;;;;;5069125;28;20465;-69
2022/05/27 11:37:13;;;;;;;7.97;3.90;;;34.70;53.60;;;;;;5071245;28;20584;-68
2022/05/27 11:40:11;;;;;;;7.80;4.33;;;34.80;53.70;;;;;;5026717;28;20980;-69
2022/05/27 11:42:59;;;;;;;9.23;4.37;;;34.90;53.20;;;;;;5026015;28;20500;-69
2022/05/27 11:45:28;;;;;;;5.90;3.43;;;34.80;52.20;;;;;;5071145;28;20627;-69
2022/05/27 11:48:01;;;;;;;11.33;3.83;;;34.70;52.60;;;;;;5070710;28;20457;-68
2022/05/27 11:50:41;;;;;;;9.90;3.93;;;34.70;52.80;;;;;;5071197;28;20488;-69
2022/05/27 11:53:27;;;;;;;6.80;4.47;;;35.00;52.10;;;;;;5070776;28;20931;-69
2022/05/27 11:56:10;;;;;;;11.77;5.07;;;35.00;52.10;;;;;;5071088;28;20833;-69
2022/05/27 11:58:46;;;;;;;9.00;4.50;;;35.00;52.40;;;;;;5071026;28;20801;-69
2022/05/27 12:01:35;;;;;;;10.30;4.37;;;34.90;53.00;;;;;;5070826;28;20456;-69
2022/05/27 12:04:10;;;;;;;7.00;3.53;;;34.90;53.00;;;;;;5070582;28;20485;-69
2022/05/27 12:06:45;;;;;;;7.67;3.40;;;35.10;52.90;;;;;;5070566;28;20543;-67
2022/05/27 12:09:23;;;;;;;12.23;4.90;;;35.40;53.20;;;;;;5070745;28;20464;-68
2022/05/27 12:11:54;;;;;;;15.40;4.60;;;35.50;52.20;;;;;;5070613;28;20488;-69
2022/05/27 12:14:30;;;;;;;6.63;3.97;;;35.60;52.10;;;;;;5070545;28;20933;-68
2022/05/27 12:16:59;;;;;;;6.63;4.73;;;35.60;51.90;;;;;;5070694;28;20531;-69
2022/05/27 12:19:30;;;;;;;9.90;5.20;;;35.70;51.90;;;;;;5070591;28;21007;-69
2022/05/27 12:22:07;;;;;;;9.10;4.20;;;35.90;52.20;;;;;;5070164;28;20543;-68
2022/05/27 12:24:37;;;;;;;6.73;3.80;;;35.80;51.00;;;;;;5070271;28;20480;-68
2022/05/27 12:27:06;;;;;;;9.20;4.20;;;35.70;50.30;;;;;;5070335;28;20449;-69
2022/05/27 12:29:34;;;;;;;8.23;3.80;;;35.80;50.60;;;;;;5070324;28;20510;-69
2022/05/27 12:32:02;;;;;;;7.70;4.30;;;36.00;50.50;;;;;;5070219;28;20885;-69
2022/05/27 12:34:40;;;;;;;7.17;3.70;;;36.00;50.40;;;;;;5070163;28;20460;-68
2022/05/27 12:37:25;;;;;;;8.73;4.27;;;36.10;50.20;;;;;;5070009;28;20465;-70
2022/05/27 12:40:12;;;;;;;6.90;3.70;;;36.00;50.30;;;;;;5069910;28;20510;-68
2022/05/27 12:42:42;;;;;;;8.30;3.80;;;36.10;50.90;;;;;;5069597;28;20485;-69
2022/05/27 12:45:34;;;;;;;13.50;5.20;;;36.10;49.90;;;;;;5069710;28;20464;-70
2022/05/27 12:48:03;;;;;;;7.93;3.80;;;36.40;50.60;;;;;;5069894;28;20449;-69
2022/05/27 12:50:33;;;;;;;8.03;5.20;;;36.60;49.20;;;;;;5070131;28;20452;-67
2022/05/27 12:53:16;;;;;;;7.47;4.33;;;36.60;48.70;;;;;;5069661;28;20480;-68
2022/05/27 13:01:28;;;;;;;11.00;4.37;;;36.10;48.00;;;;;;5069758;28;20848;-68
2022/05/27 13:03:58;;;;;;;12.00;4.37;;;36.30;48.60;;;;;;5069365;28;20473;-67
2022/05/27 13:06:40;;;;;;;10.40;5.20;;;36.60;49.20;;;;;;5069517;28;20541;-69
2022/05/27 13:09:12;;;;;;;12.30;4.43;;;36.60;49.00;;;;;;5069858;28;20448;-69
2022/05/27 13:11:46;;;;;;;11.47;4.90;;;36.70;48.00;;;;;;5069786;28;20477;-70
2022/05/27 13:14:35;;;;;;;6.80;3.50;;;36.90;47.80;;;;;;5069442;28;20851;-70
2022/05/27 13:17:06;;;;;;;10.33;3.47;;;36.60;47.30;;;;;;5069423;28;20457;-69
2022/05/27 13:19:36;;;;;;;9.57;3.93;;;36.20;47.50;;;;;;5069695;28;20456;-69
2022/05/27 13:22:10;;;;;;;7.60;3.80;;;35.90;47.60;;;;;;5068817;28;20994;-69
2022/05/27 13:24:40;;;;;;;9.53;4.00;;;35.90;48.40;;;;;;5069467;28;20461;-69
2022/05/27 13:27:27;;;;;;;11.80;5.00;;;35.90;48.20;;;;;;5069253;28;20460;-69
2022/05/27 13:30:09;;;;;;;6.40;3.80;;;35.80;48.50;;;;;;5069552;28;20452;-68
2022/05/27 13:32:51;;;;;;;13.10;4.40;;;35.40;48.80;;;;;;5069313;28;20496;-68
2022/05/27 13:35:20;;;;;;;8.23;4.40;;;34.90;48.90;;;;;;5069289;28;20526;-68
2022/05/27 13:37:51;;;;;;;10.57;4.60;;;34.70;49.40;;;;;;5069553;28;20495;-69
2022/05/27 13:40:25;;;;;;;7.90;4.53;;;34.70;49.50;;;;;;5068678;28;20461;-69
2022/05/27 13:42:54;;;;;;;8.23;4.73;;;34.50;50.20;;;;;;5068847;28;20508;-70